createdAt,value
2016-11-13T00:00:03.342Z,-4.86
2016-11-13T00:01:11.958Z,-4.9
2016-11-13T00:02:20.558Z,-4.83
2016-11-13T00:03:29.137Z,-4.77
2016-11-13T00:04:37.758Z,-4.78
2016-11-13T00:05:46.375Z,-4.87
2016-11-13T00:06:54.999Z,-4.89
2016-11-13T00:08:03.589Z,-4.83
2016-11-13T00:09:12.190Z,-4.87
2016-11-13T00:10:20.777Z,-4.86
2016-11-13T00:11:29.384Z,-4.89
2016-11-13T00:12:38.002Z,-4.89
2016-11-13T00:13:46.920Z,-4.89
2016-11-13T00:14:55.828Z,-4.99
2016-11-13T00:16:04.440Z,-5
2016-11-13T00:17:13.091Z,-4.89
2016-11-13T00:18:21.712Z,-5.06
2016-11-13T00:19:30.405Z,-4.95
2016-11-13T00:20:39.029Z,-4.99
2016-11-13T00:21:47.645Z,-4.97
2016-11-13T00:22:56.239Z,-5.03
2016-11-13T00:24:04.868Z,-4.96
2016-11-13T00:25:13.516Z,-4.93
2016-11-13T00:26:22.130Z,-4.96
2016-11-13T00:27:30.723Z,-5.03
2016-11-13T00:28:39.322Z,-4.99
2016-11-13T00:29:47.965Z,-4.95
2016-11-13T00:30:56.557Z,-4.85
2016-11-13T00:32:05.182Z,-4.86
2016-11-13T00:33:13.774Z,-4.86
2016-11-13T00:34:22.382Z,-4.83
2016-11-13T00:35:30.999Z,-4.9
2016-11-13T00:36:39.601Z,-4.81
2016-11-13T00:37:48.516Z,-4.99
2016-11-13T00:38:57.155Z,-4.97
2016-11-13T00:40:06.055Z,-4.99
2016-11-13T00:41:14.659Z,-4.93
2016-11-13T00:42:23.293Z,-4.9
2016-11-13T00:43:31.925Z,-4.96
2016-11-13T00:44:40.523Z,-4.97
2016-11-13T00:45:49.136Z,-4.96
2016-11-13T00:46:57.756Z,-4.96
2016-11-13T00:48:06.362Z,-4.93
2016-11-13T00:49:14.999Z,-4.92
2016-11-13T00:50:23.616Z,-4.92
2016-11-13T00:51:32.220Z,-4.96
2016-11-13T00:52:40.834Z,-4.95
2016-11-13T00:53:49.429Z,-4.99
2016-11-13T00:54:58.057Z,-4.95
2016-11-13T00:56:06.670Z,-5.03
2016-11-13T00:57:15.296Z,-5
2016-11-13T00:58:23.888Z,-4.99
2016-11-13T00:59:32.499Z,-4.99
2016-11-13T01:00:41.113Z,-5.14
2016-11-13T01:01:49.714Z,-5.13
2016-11-13T01:02:58.328Z,-5.08
2016-11-13T01:04:06.930Z,-5.11
2016-11-13T01:05:15.545Z,-4.99
2016-11-13T01:06:24.144Z,-5.04
2016-11-13T01:07:32.740Z,-4.99
2016-11-13T01:08:41.336Z,-4.96
2016-11-13T01:09:49.932Z,-4.99
2016-11-13T01:10:58.521Z,-4.99
2016-11-13T01:12:07.129Z,-5.04
2016-11-13T01:13:15.738Z,-4.96
2016-11-13T01:14:24.374Z,-4.99
2016-11-13T01:15:32.995Z,-4.96
2016-11-13T01:16:41.615Z,-4.95
2016-11-13T01:17:50.257Z,-4.87
2016-11-13T01:18:58.851Z,-5
2016-11-13T01:20:07.444Z,-4.96
2016-11-13T01:21:16.047Z,-4.9
2016-11-13T01:22:24.691Z,-5.03
2016-11-13T01:23:33.304Z,-4.93
2016-11-13T01:24:41.924Z,-4.99
2016-11-13T01:25:50.555Z,-5.07
2016-11-13T01:26:59.154Z,-5.1
2016-11-13T01:28:07.788Z,-5.17
2016-11-13T01:29:16.393Z,-5.13
2016-11-13T01:30:25.039Z,-5.14
2016-11-13T01:31:33.631Z,-5.18
2016-11-13T01:32:42.234Z,-5.23
2016-11-13T01:33:50.842Z,-5.13
2016-11-13T01:34:59.443Z,-5.13
2016-11-13T01:36:08.060Z,-5.14
2016-11-13T01:37:16.644Z,-5.18
2016-11-13T01:38:25.260Z,-5.14
2016-11-13T01:39:33.856Z,-5.22
2016-11-13T01:40:42.502Z,-5.14
2016-11-13T01:41:51.091Z,-5.17
2016-11-13T01:42:59.691Z,-5.25
2016-11-13T01:44:08.290Z,-5.29
2016-11-13T01:45:16.894Z,-5.29
2016-11-13T01:46:25.530Z,-5.29
2016-11-13T01:47:34.121Z,-5.32
2016-11-13T01:48:42.721Z,-5.22
2016-11-13T01:49:51.321Z,-5.19
2016-11-13T01:50:59.920Z,-5.14
2016-11-13T01:52:08.517Z,-5.19
2016-11-13T01:53:17.139Z,-5.23
2016-11-13T01:54:25.753Z,-5.25
2016-11-13T01:55:34.349Z,-5.13
2016-11-13T01:56:42.976Z,-5.25
2016-11-13T01:57:51.616Z,-5.25
2016-11-13T01:59:00.207Z,-5.22
2016-11-13T02:00:08.841Z,-5.17
2016-11-13T02:01:17.453Z,-5.18
2016-11-13T02:02:26.071Z,-5.25
2016-11-13T02:03:34.646Z,-5.26
2016-11-13T02:04:43.600Z,-5.17
2016-11-13T02:05:52.192Z,-5.19
2016-11-13T02:07:00.805Z,-5.14
2016-11-13T02:08:09.418Z,-5.17
2016-11-13T02:09:17.997Z,-5.11
2016-11-13T02:10:26.600Z,-5.14
2016-11-13T02:11:35.204Z,-5.11
2016-11-13T02:12:43.820Z,-5.26
2016-11-13T02:13:52.431Z,-5.25
2016-11-13T02:15:01.053Z,-5.25
2016-11-13T02:16:09.649Z,-5.14
2016-11-13T02:17:18.256Z,-5.23
2016-11-13T02:18:26.850Z,-5.22
2016-11-13T02:19:35.462Z,-5.27
2016-11-13T02:20:44.059Z,-5.33
2016-11-13T02:21:52.668Z,-5.36
2016-11-13T02:23:01.275Z,-5.41
2016-11-13T02:24:09.879Z,-5.36
2016-11-13T02:25:18.505Z,-5.41
2016-11-13T02:26:27.121Z,-5.36
2016-11-13T02:27:35.717Z,-5.36
2016-11-13T02:28:44.313Z,-5.39
2016-11-13T02:29:52.916Z,-5.3
2016-11-13T02:31:01.561Z,-5.32
2016-11-13T02:32:10.180Z,-5.29
2016-11-13T02:33:18.770Z,-5.3
2016-11-13T02:34:27.373Z,-5.37
2016-11-13T02:35:35.990Z,-5.3
2016-11-13T02:36:44.578Z,-5.33
2016-11-13T02:37:53.184Z,-5.36
2016-11-13T02:39:01.787Z,-5.33
2016-11-13T02:40:10.421Z,-5.25
2016-11-13T02:41:19.020Z,-5.26
2016-11-13T02:42:27.616Z,-5.3
2016-11-13T02:43:36.217Z,-5.22
2016-11-13T02:44:44.835Z,-5.18
2016-11-13T02:45:53.447Z,-5.18
2016-11-13T02:47:02.073Z,-5.23
2016-11-13T02:48:10.669Z,-5.27
2016-11-13T02:49:19.260Z,-5.35
2016-11-13T02:50:28.168Z,-5.27
2016-11-13T02:51:36.781Z,-5.32
2016-11-13T02:52:45.378Z,-5.25
2016-11-13T02:53:53.952Z,-5.13
2016-11-13T02:55:02.530Z,-5.17
2016-11-13T02:56:11.166Z,-5.18
2016-11-13T02:57:19.782Z,-5.19
2016-11-13T02:58:28.412Z,-5.22
2016-11-13T02:59:37.013Z,-5.19
2016-11-13T03:00:45.650Z,-5.1
2016-11-13T03:01:54.254Z,-5.18
2016-11-13T03:03:02.877Z,-5.18
2016-11-13T03:04:11.465Z,-5.22
2016-11-13T03:05:20.068Z,-5.18
2016-11-13T03:06:28.664Z,-5.22
2016-11-13T03:07:37.273Z,-5.26
2016-11-13T03:08:45.881Z,-5.22
2016-11-13T03:09:54.498Z,-5.17
2016-11-13T03:11:03.136Z,-5.25
2016-11-13T03:12:11.765Z,-5.18
2016-11-13T03:13:20.379Z,-5.23
2016-11-13T03:14:28.975Z,-5.22
2016-11-13T03:15:37.583Z,-5.25
2016-11-13T03:16:46.192Z,-5.18
2016-11-13T03:17:54.789Z,-5.25
2016-11-13T03:19:03.391Z,-5.17
2016-11-13T03:20:12.018Z,-5.18
2016-11-13T03:21:20.651Z,-5.32
2016-11-13T03:22:29.248Z,-5.25
2016-11-13T03:23:37.843Z,-5.23
2016-11-13T03:24:46.446Z,-5.13
2016-11-13T03:25:55.085Z,-5.13
2016-11-13T03:27:03.682Z,-5.17
2016-11-13T03:28:12.292Z,-5.13
2016-11-13T03:29:21.207Z,-5.13
2016-11-13T03:30:29.828Z,-5.14
2016-11-13T03:31:38.454Z,-5.1
2016-11-13T03:32:47.063Z,-5.18
2016-11-13T03:33:55.666Z,-5.11
2016-11-13T03:35:04.316Z,-5.11
2016-11-13T03:36:13.213Z,-5.1
2016-11-13T03:37:21.830Z,-5.13
2016-11-13T03:38:30.447Z,-5.17
2016-11-13T03:39:39.052Z,-5.14
2016-11-13T03:40:47.672Z,-5.1
2016-11-13T03:41:56.289Z,-5.1
2016-11-13T03:43:04.890Z,-5.17
2016-11-13T03:44:13.498Z,-5.17
2016-11-13T03:45:22.085Z,-5.14
2016-11-13T03:46:30.730Z,-5.11
2016-11-13T03:47:39.337Z,-5.19
2016-11-13T03:48:47.946Z,-5.13
2016-11-13T03:49:56.561Z,-5.19
2016-11-13T03:51:05.139Z,-5.19
2016-11-13T03:52:13.751Z,-5.29
2016-11-13T03:53:22.371Z,-5.18
2016-11-13T03:54:30.971Z,-5.13
2016-11-13T03:55:39.590Z,-5.19
2016-11-13T03:56:48.490Z,-5.19
2016-11-13T03:57:57.084Z,-5.14
2016-11-13T03:59:05.684Z,-5.25
2016-11-13T04:00:14.324Z,-5.25
2016-11-13T04:01:22.945Z,-5.23
2016-11-13T04:02:31.568Z,-5.22
2016-11-13T04:03:40.482Z,-5.25
2016-11-13T04:04:49.110Z,-5.29
2016-11-13T04:05:57.712Z,-5.17
2016-11-13T04:07:06.325Z,-5.22
2016-11-13T04:08:14.924Z,-5.25
2016-11-13T04:09:23.538Z,-5.25
2016-11-13T04:10:32.159Z,-5.19
2016-11-13T04:11:40.767Z,-5.29
2016-11-13T04:12:49.352Z,-5.18
2016-11-13T04:13:57.963Z,-5.19
2016-11-13T04:15:06.601Z,-5.22
2016-11-13T04:16:15.215Z,-5.22
2016-11-13T04:17:23.840Z,-5.22
2016-11-13T04:18:32.443Z,-5.23
2016-11-13T04:19:41.058Z,-5.29
2016-11-13T04:20:49.674Z,-5.3
2016-11-13T04:21:58.296Z,-5.36
2016-11-13T04:23:06.905Z,-5.33
2016-11-13T04:24:15.519Z,-5.27
2016-11-13T04:25:24.138Z,-5.33
2016-11-13T04:26:32.737Z,-5.26
2016-11-13T04:27:41.330Z,-5.18
2016-11-13T04:28:49.958Z,-5.3
2016-11-13T04:29:58.579Z,-5.3
2016-11-13T04:31:07.177Z,-5.33
2016-11-13T04:32:15.790Z,-5.27
2016-11-13T04:33:24.393Z,-5.37
2016-11-13T04:34:32.982Z,-5.47
2016-11-13T04:35:41.611Z,-5.46
2016-11-13T04:36:50.231Z,-5.39
2016-11-13T04:37:58.848Z,-5.46
2016-11-13T04:39:07.450Z,-5.46
2016-11-13T04:40:16.062Z,-5.43
2016-11-13T04:41:24.679Z,-5.35
2016-11-13T04:42:33.313Z,-5.37
2016-11-13T04:43:41.921Z,-5.39
2016-11-13T04:44:50.525Z,-5.43
2016-11-13T04:45:59.143Z,-5.44
2016-11-13T04:47:07.734Z,-5.46
2016-11-13T04:48:16.342Z,-5.51
2016-11-13T04:49:24.941Z,-5.46
2016-11-13T04:50:33.552Z,-5.5
2016-11-13T04:51:42.126Z,-5.48
2016-11-13T04:52:50.691Z,-5.43
2016-11-13T04:53:59.294Z,-5.5
2016-11-13T04:55:07.921Z,-5.48
2016-11-13T04:56:16.561Z,-5.41
2016-11-13T04:57:25.186Z,-5.41
2016-11-13T04:58:33.810Z,-5.48
2016-11-13T04:59:42.471Z,-5.48
2016-11-13T05:00:51.087Z,-5.51
2016-11-13T05:01:59.984Z,-5.48
2016-11-13T05:03:08.569Z,-5.54
2016-11-13T05:04:17.208Z,-5.62
2016-11-13T05:05:25.812Z,-5.62
2016-11-13T05:06:34.431Z,-5.59
2016-11-13T05:07:43.045Z,-5.59
2016-11-13T05:08:51.635Z,-5.57
2016-11-13T05:10:00.232Z,-5.65
2016-11-13T05:11:08.837Z,-5.66
2016-11-13T05:12:17.432Z,-5.62
2016-11-13T05:13:26.035Z,-5.62
2016-11-13T05:14:34.629Z,-5.66
2016-11-13T05:15:43.221Z,-5.66
2016-11-13T05:16:51.820Z,-5.71
2016-11-13T05:18:00.433Z,-5.66
2016-11-13T05:19:09.062Z,-5.62
2016-11-13T05:20:17.683Z,-5.61
2016-11-13T05:21:26.297Z,-5.66
2016-11-13T05:22:34.914Z,-5.61
2016-11-13T05:23:43.522Z,-5.64
2016-11-13T05:24:52.139Z,-5.59
2016-11-13T05:26:00.756Z,-5.51
2016-11-13T05:27:09.331Z,-5.65
2016-11-13T05:28:17.932Z,-5.54
2016-11-13T05:29:26.553Z,-5.55
2016-11-13T05:30:35.170Z,-5.66
2016-11-13T05:31:43.758Z,-5.55
2016-11-13T05:32:52.337Z,-5.64
2016-11-13T05:34:00.925Z,-5.61
2016-11-13T05:35:09.504Z,-5.59
2016-11-13T05:36:18.100Z,-5.53
2016-11-13T05:37:26.693Z,-5.57
2016-11-13T05:38:35.315Z,-5.59
2016-11-13T05:39:43.935Z,-5.61
2016-11-13T05:40:52.556Z,-5.64
2016-11-13T05:42:01.152Z,-5.59
2016-11-13T05:43:09.793Z,-5.54
2016-11-13T05:44:18.398Z,-5.48
2016-11-13T05:45:27.016Z,-5.5
2016-11-13T05:46:35.612Z,-5.48
2016-11-13T05:47:44.240Z,-5.48
2016-11-13T05:48:52.879Z,-5.46
2016-11-13T05:50:01.496Z,-5.47
2016-11-13T05:51:10.099Z,-5.46
2016-11-13T05:52:18.674Z,-5.48
2016-11-13T05:53:27.284Z,-5.48
2016-11-13T05:54:35.887Z,-5.46
2016-11-13T05:55:44.503Z,-5.62
2016-11-13T05:56:53.104Z,-5.5
2016-11-13T05:58:01.718Z,-5.57
2016-11-13T05:59:10.324Z,-5.48
2016-11-13T06:00:18.961Z,-5.48
2016-11-13T06:01:27.564Z,-5.53
2016-11-13T06:02:36.165Z,-5.5
2016-11-13T06:03:44.757Z,-5.61
2016-11-13T06:04:53.353Z,-5.59
2016-11-13T06:06:01.950Z,-5.62
2016-11-13T06:07:10.566Z,-5.62
2016-11-13T06:08:19.183Z,-5.65
2016-11-13T06:09:27.783Z,-5.61
2016-11-13T06:10:36.400Z,-5.61
2016-11-13T06:11:45.004Z,-5.59
2016-11-13T06:12:53.630Z,-5.47
2016-11-13T06:14:02.239Z,-5.51
2016-11-13T06:15:10.860Z,-5.5
2016-11-13T06:16:19.470Z,-5.44
2016-11-13T06:17:28.077Z,-5.44
2016-11-13T06:18:36.687Z,-5.46
2016-11-13T06:19:45.302Z,-5.44
2016-11-13T06:20:53.891Z,-5.5
2016-11-13T06:22:02.519Z,-5.48
2016-11-13T06:23:11.112Z,-5.51
2016-11-13T06:24:19.742Z,-5.51
2016-11-13T06:25:28.354Z,-5.47
2016-11-13T06:26:36.946Z,-5.5
2016-11-13T06:27:45.543Z,-5.46
2016-11-13T06:28:54.147Z,-5.51
2016-11-13T06:30:02.776Z,-5.46
2016-11-13T06:31:11.385Z,-5.5
2016-11-13T06:32:19.981Z,-5.47
2016-11-13T06:33:28.585Z,-5.48
2016-11-13T06:34:37.193Z,-5.41
2016-11-13T06:35:45.851Z,-5.46
2016-11-13T06:36:54.469Z,-5.46
2016-11-13T06:38:03.065Z,-5.48
2016-11-13T06:39:11.658Z,-5.48
2016-11-13T06:40:20.262Z,-5.46
2016-11-13T06:41:28.878Z,-5.37
2016-11-13T06:42:37.481Z,-5.41
2016-11-13T06:43:46.121Z,-5.48
2016-11-13T06:44:54.741Z,-5.44
2016-11-13T06:46:03.379Z,-5.41
2016-11-13T06:47:12.012Z,-5.44
2016-11-13T06:48:20.627Z,-5.37
2016-11-13T06:49:29.251Z,-5.43
2016-11-13T06:50:37.824Z,-5.39
2016-11-13T06:51:46.422Z,-5.48
2016-11-13T06:52:55.021Z,-5.41
2016-11-13T06:54:03.639Z,-5.35
2016-11-13T06:55:12.249Z,-5.36
2016-11-13T06:56:20.877Z,-5.36
2016-11-13T06:57:29.479Z,-5.41
2016-11-13T06:58:38.091Z,-5.37
2016-11-13T06:59:46.691Z,-5.37
2016-11-13T07:00:55.283Z,-5.35
2016-11-13T07:02:03.907Z,-5.27
2016-11-13T07:03:12.521Z,-5.3
2016-11-13T07:04:21.142Z,-5.29
2016-11-13T07:05:29.776Z,-5.23
2016-11-13T07:06:38.367Z,-5.25
2016-11-13T07:07:46.984Z,-5.17
2016-11-13T07:08:55.582Z,-5.18
2016-11-13T07:10:04.186Z,-5.26
2016-11-13T07:11:12.807Z,-5.23
2016-11-13T07:12:21.402Z,-5.22
2016-11-13T07:13:29.986Z,-5.18
2016-11-13T07:14:38.661Z,-5.14
2016-11-13T07:15:47.278Z,-5.22
2016-11-13T07:16:55.888Z,-5.17
2016-11-13T07:18:04.507Z,-5.19
2016-11-13T07:19:13.143Z,-5.17
2016-11-13T07:20:21.799Z,-5.11
2016-11-13T07:21:30.386Z,-5.07
2016-11-13T07:22:39.293Z,-5.04
2016-11-13T07:23:47.934Z,-4.99
2016-11-13T07:24:56.523Z,-4.99
2016-11-13T07:26:05.126Z,-4.92
2016-11-13T07:27:13.726Z,-4.93
2016-11-13T07:28:22.348Z,-4.99
2016-11-13T07:29:31.120Z,-4.87
2016-11-13T07:30:40.115Z,-4.83
2016-11-13T07:31:48.703Z,-4.85
2016-11-13T07:32:57.327Z,-4.75
2016-11-13T07:34:05.915Z,-4.71
2016-11-13T07:35:14.512Z,-4.69
2016-11-13T07:36:23.126Z,-4.71
2016-11-13T07:37:31.737Z,-4.63
2016-11-13T07:38:40.326Z,-4.6
2016-11-13T07:39:48.934Z,-4.51
2016-11-13T07:40:57.556Z,-4.43
2016-11-13T07:42:06.171Z,-4.46
2016-11-13T07:43:14.768Z,-4.54
2016-11-13T07:44:23.343Z,-4.46
2016-11-13T07:45:31.961Z,-4.46
2016-11-13T07:46:40.552Z,-4.5
2016-11-13T07:47:49.456Z,-4.49
2016-11-13T07:48:58.095Z,-4.4
2016-11-13T07:50:06.691Z,-4.43
2016-11-13T07:51:15.319Z,-4.38
2016-11-13T07:52:23.932Z,-4.32
2016-11-13T07:53:32.562Z,-4.3
2016-11-13T07:54:41.203Z,-4.21
2016-11-13T07:55:49.791Z,-4.24
2016-11-13T07:56:58.443Z,-4.2
2016-11-13T07:58:07.041Z,-4.2
2016-11-13T07:59:15.619Z,-4.2
2016-11-13T08:00:24.234Z,-4.18
2016-11-13T08:01:32.822Z,-4.14
2016-11-13T08:02:41.423Z,-4
2016-11-13T08:03:50.015Z,-3.97
2016-11-13T08:04:58.595Z,-3.94
2016-11-13T08:06:07.171Z,-3.97
2016-11-13T08:07:15.780Z,-4
2016-11-13T08:08:24.710Z,-3.93
2016-11-13T08:09:33.357Z,-3.94
2016-11-13T08:10:41.966Z,-3.9
2016-11-13T08:11:50.562Z,-3.85
2016-11-13T08:12:59.191Z,-3.75
2016-11-13T08:14:07.763Z,-3.85
2016-11-13T08:15:16.380Z,-3.67
2016-11-13T08:16:24.974Z,-3.63
2016-11-13T08:17:33.579Z,-3.64
2016-11-13T08:18:42.571Z,-3.48
2016-11-13T08:19:51.171Z,-3.43
2016-11-13T08:20:59.794Z,-3.45
2016-11-13T08:22:08.382Z,-3.39
2016-11-13T08:23:17.056Z,-3.36
2016-11-13T08:24:25.653Z,-3.31
2016-11-13T08:25:34.245Z,-3.31
2016-11-13T08:26:42.875Z,-3.12
2016-11-13T08:27:51.465Z,-2.97
2016-11-13T08:29:00.067Z,-2.99
2016-11-13T08:30:08.675Z,-3.03
2016-11-13T08:31:17.301Z,-2.99
2016-11-13T08:32:25.893Z,-2.99
2016-11-13T08:33:34.488Z,-2.74
2016-11-13T08:34:43.089Z,-2.78
2016-11-13T08:35:51.706Z,-2.82
2016-11-13T08:37:00.302Z,-2.71
2016-11-13T08:38:08.947Z,-2.77
2016-11-13T08:39:17.579Z,-2.61
2016-11-13T08:40:26.198Z,-2.58
2016-11-13T08:41:34.803Z,-2.6
2016-11-13T08:42:43.437Z,-2.58
2016-11-13T08:43:52.040Z,-2.58
2016-11-13T08:45:00.661Z,-2.58
2016-11-13T08:46:09.278Z,-2.61
2016-11-13T08:47:17.871Z,-2.63
2016-11-13T08:48:26.489Z,-2.52
2016-11-13T08:49:35.134Z,-2.52
2016-11-13T08:50:43.817Z,-2.52
2016-11-13T08:51:52.430Z,-2.56
2016-11-13T08:53:01.031Z,-2.48
2016-11-13T08:54:09.627Z,-2.49
2016-11-13T08:55:18.244Z,-2.56
2016-11-13T08:56:26.865Z,-2.4
2016-11-13T08:57:35.489Z,-2.4
2016-11-13T08:58:44.110Z,-2.4
2016-11-13T08:59:52.724Z,-2.26
2016-11-13T09:01:01.352Z,-2.21
2016-11-13T09:02:09.981Z,-2.23
2016-11-13T09:03:18.601Z,-2.02
2016-11-13T09:04:27.207Z,-1.91
2016-11-13T09:05:35.835Z,-1.85
2016-11-13T09:06:44.438Z,-1.76
2016-11-13T09:07:53.033Z,-1.82
2016-11-13T09:09:01.626Z,-1.77
2016-11-13T09:10:10.213Z,-1.77
2016-11-13T09:11:18.817Z,-1.77
2016-11-13T09:12:27.410Z,-1.72
2016-11-13T09:13:36.051Z,-1.66
2016-11-13T09:14:44.688Z,-1.67
2016-11-13T09:15:53.306Z,-1.66
2016-11-13T09:17:01.920Z,-1.73
2016-11-13T09:18:10.811Z,-1.64
2016-11-13T09:19:19.445Z,-1.64
2016-11-13T09:20:28.037Z,-1.64
2016-11-13T09:21:36.639Z,-1.51
2016-11-13T09:22:45.550Z,-1.51
2016-11-13T09:23:54.172Z,-1.51
2016-11-13T09:25:02.796Z,-1.52
2016-11-13T09:26:11.388Z,-1.45
2016-11-13T09:27:19.988Z,-1.35
2016-11-13T09:28:28.588Z,-1.22
2016-11-13T09:29:37.181Z,-1.16
2016-11-13T09:30:45.769Z,-1.23
2016-11-13T09:31:54.397Z,-1.2
2016-11-13T09:33:03.348Z,-1.25
2016-11-13T09:34:11.986Z,-1.16
2016-11-13T09:35:20.603Z,-1.16
2016-11-13T09:36:29.206Z,-1.1
2016-11-13T09:37:37.833Z,-1.02
2016-11-13T09:38:46.452Z,-1.09
2016-11-13T09:39:55.050Z,-0.95
2016-11-13T09:41:03.671Z,-0.94
2016-11-13T09:42:12.312Z,-0.89
2016-11-13T09:43:20.914Z,-0.91
2016-11-13T09:44:29.526Z,-0.94
2016-11-13T09:45:38.122Z,-0.89
2016-11-13T09:46:46.722Z,-0.92
2016-11-13T09:47:55.342Z,-0.91
2016-11-13T09:49:03.939Z,-0.75
2016-11-13T09:50:12.515Z,-0.82
2016-11-13T09:51:21.181Z,-0.82
2016-11-13T09:52:29.806Z,-0.58
2016-11-13T09:53:38.420Z,-0.6
2016-11-13T09:54:47.048Z,-0.62
2016-11-13T09:55:55.691Z,-0.69
2016-11-13T09:57:04.287Z,-0.57
2016-11-13T09:58:12.904Z,-0.65
2016-11-13T09:59:21.504Z,-0.61
2016-11-13T10:00:30.097Z,-0.61
2016-11-13T10:01:38.713Z,-0.58
2016-11-13T10:02:47.618Z,-0.67
2016-11-13T10:03:56.210Z,-0.54
2016-11-13T10:05:04.809Z,-0.6
2016-11-13T10:06:13.431Z,-0.54
2016-11-13T10:07:22.078Z,-0.46
2016-11-13T10:08:30.697Z,-0.47
2016-11-13T10:09:39.318Z,-0.39
2016-11-13T10:10:48.334Z,-0.39
2016-11-13T10:11:57.228Z,-0.34
2016-11-13T10:13:05.836Z,-0.47
2016-11-13T10:14:14.458Z,-0.34
2016-11-13T10:15:23.079Z,-0.29
2016-11-13T10:16:31.695Z,-0.22
2016-11-13T10:17:40.313Z,-0.22
2016-11-13T10:18:48.916Z,-0.15
2016-11-13T10:19:57.913Z,-0.08
2016-11-13T10:21:06.530Z,-0.05
2016-11-13T10:22:15.130Z,0.02
2016-11-13T10:23:23.753Z,-0.04
2016-11-13T10:24:32.393Z,0.02
2016-11-13T10:25:41.039Z,0.03
2016-11-13T10:26:49.659Z,0.07
2016-11-13T10:27:58.256Z,0.08
2016-11-13T10:29:06.870Z,0.15
2016-11-13T10:30:15.471Z,0.17
2016-11-13T10:31:24.076Z,0.17
2016-11-13T10:32:32.694Z,0.23
2016-11-13T10:33:41.362Z,0.2
2016-11-13T10:34:49.982Z,0.18
2016-11-13T10:35:58.629Z,0.29
2016-11-13T10:37:07.222Z,0.33
2016-11-13T10:38:15.827Z,0.23
2016-11-13T10:39:24.435Z,0.2
2016-11-13T10:40:33.081Z,0.36
2016-11-13T10:41:41.709Z,0.38
2016-11-13T10:42:50.355Z,0.26
2016-11-13T10:43:58.956Z,0.21
2016-11-13T10:45:07.569Z,0.18
2016-11-13T10:46:16.165Z,0.23
2016-11-13T10:47:24.757Z,0.28
2016-11-13T10:48:33.358Z,0.18
2016-11-13T10:49:41.980Z,0.18
2016-11-13T10:50:50.575Z,0.31
2016-11-13T10:51:59.206Z,0.33
2016-11-13T10:53:07.813Z,0.38
2016-11-13T10:54:16.447Z,0.42
2016-11-13T10:55:25.064Z,0.49
2016-11-13T10:56:33.665Z,0.49
2016-11-13T10:57:42.273Z,0.5
2016-11-13T10:58:50.878Z,0.47
2016-11-13T10:59:59.494Z,0.39
2016-11-13T11:01:08.140Z,0.49
2016-11-13T11:02:16.762Z,0.53
2016-11-13T11:03:25.378Z,0.65
2016-11-13T11:04:33.990Z,0.58
2016-11-13T11:05:42.607Z,0.66
2016-11-13T11:06:51.230Z,0.69
2016-11-13T11:08:00.149Z,0.66
2016-11-13T11:09:08.796Z,0.7
2016-11-13T11:10:17.437Z,0.68
2016-11-13T11:11:26.037Z,0.72
2016-11-13T11:12:34.976Z,0.73
2016-11-13T11:13:43.579Z,0.7
2016-11-13T11:14:52.201Z,0.65
2016-11-13T11:16:00.839Z,0.62
2016-11-13T11:17:09.472Z,0.69
2016-11-13T11:18:18.110Z,0.73
2016-11-13T11:19:26.731Z,0.66
2016-11-13T11:20:35.344Z,0.72
2016-11-13T11:21:43.948Z,0.69
2016-11-13T11:22:52.612Z,0.73
2016-11-13T11:24:01.218Z,0.72
2016-11-13T11:25:09.841Z,0.8
2016-11-13T11:26:18.451Z,0.84
2016-11-13T11:27:27.062Z,0.83
2016-11-13T11:28:35.675Z,0.83
2016-11-13T11:29:44.293Z,0.79
2016-11-13T11:30:52.896Z,0.8
2016-11-13T11:32:01.532Z,0.86
2016-11-13T11:33:10.128Z,0.94
2016-11-13T11:34:18.748Z,0.97
2016-11-13T11:35:27.359Z,0.91
2016-11-13T11:36:35.973Z,0.97
2016-11-13T11:37:44.591Z,0.88
2016-11-13T11:38:53.189Z,0.96
2016-11-13T11:40:01.795Z,0.86
2016-11-13T11:41:10.412Z,0.9
2016-11-13T11:42:19.020Z,0.91
2016-11-13T11:43:27.646Z,0.87
2016-11-13T11:44:36.262Z,0.91
2016-11-13T11:45:44.859Z,0.97
2016-11-13T11:46:53.493Z,0.96
2016-11-13T11:48:02.106Z,0.93
2016-11-13T11:49:10.704Z,0.9
2016-11-13T11:50:19.318Z,1
2016-11-13T11:51:27.922Z,0.93
2016-11-13T11:52:36.545Z,0.96
2016-11-13T11:53:45.144Z,1.06
2016-11-13T11:54:53.764Z,1.09
2016-11-13T11:56:02.406Z,1.06
2016-11-13T11:57:11.030Z,1.11
2016-11-13T11:58:19.645Z,1.11
2016-11-13T11:59:28.241Z,1.15
2016-11-13T12:00:36.870Z,1.27
2016-11-13T12:01:45.461Z,1.36
2016-11-13T12:02:54.075Z,1.34
2016-11-13T12:04:02.671Z,1.36
2016-11-13T12:05:11.299Z,1.3
2016-11-13T12:06:19.899Z,1.23
2016-11-13T12:07:28.523Z,1.36
2016-11-13T12:08:37.130Z,1.45
2016-11-13T12:09:45.738Z,1.66
2016-11-13T12:10:54.364Z,1.54
2016-11-13T12:12:02.997Z,1.6
2016-11-13T12:13:11.614Z,1.6
2016-11-13T12:14:20.244Z,1.59
2016-11-13T12:15:28.864Z,1.6
2016-11-13T12:16:37.468Z,1.59
2016-11-13T12:17:46.103Z,1.59
2016-11-13T12:18:54.725Z,1.65
2016-11-13T12:20:03.651Z,1.69
2016-11-13T12:21:12.272Z,1.63
2016-11-13T12:22:20.896Z,1.69
2016-11-13T12:23:29.818Z,1.77
2016-11-13T12:24:38.432Z,1.66
2016-11-13T12:25:47.025Z,1.63
2016-11-13T12:26:55.643Z,1.7
2016-11-13T12:28:04.242Z,1.68
2016-11-13T12:29:12.843Z,1.7
2016-11-13T12:30:21.435Z,1.73
2016-11-13T12:31:30.039Z,1.77
2016-11-13T12:32:38.648Z,1.7
2016-11-13T12:33:47.300Z,1.72
2016-11-13T12:34:55.889Z,1.68
2016-11-13T12:36:04.493Z,1.73
2016-11-13T12:37:13.082Z,1.84
2016-11-13T12:38:21.689Z,1.84
2016-11-13T12:39:30.327Z,1.81
2016-11-13T12:40:38.931Z,1.84
2016-11-13T12:41:47.540Z,1.91
2016-11-13T12:42:56.142Z,1.95
2016-11-13T12:44:04.745Z,1.83
2016-11-13T12:45:13.353Z,1.84
2016-11-13T12:46:21.987Z,1.88
2016-11-13T12:47:30.624Z,1.83
2016-11-13T12:48:39.241Z,1.86
2016-11-13T12:49:47.846Z,1.9
2016-11-13T12:50:56.434Z,1.91
2016-11-13T12:52:05.042Z,1.86
2016-11-13T12:53:13.663Z,1.91
2016-11-13T12:54:22.297Z,2.2
2016-11-13T12:55:30.931Z,2.1
2016-11-13T12:56:39.551Z,2.09
2016-11-13T12:57:48.192Z,2.06
2016-11-13T12:58:56.844Z,2.06
2016-11-13T13:00:05.764Z,1.99
2016-11-13T13:01:14.365Z,2.06
2016-11-13T13:02:22.971Z,2.05
2016-11-13T13:03:31.629Z,2.1
2016-11-13T13:04:40.245Z,2.14
2016-11-13T13:05:48.845Z,2.12
2016-11-13T13:06:57.460Z,2.12
2016-11-13T13:08:06.056Z,2.09
2016-11-13T13:09:14.660Z,2.12
2016-11-13T13:10:23.269Z,2.17
2016-11-13T13:11:31.902Z,2.12
2016-11-13T13:12:40.523Z,2.14
2016-11-13T13:13:49.147Z,2.03
2016-11-13T13:14:57.758Z,2.06
2016-11-13T13:16:06.379Z,2.14
2016-11-13T13:17:15.008Z,2.1
2016-11-13T13:18:23.724Z,2.09
2016-11-13T13:19:32.350Z,2.14
2016-11-13T13:20:40.985Z,2.2
2016-11-13T13:21:49.592Z,2.23
2016-11-13T13:22:58.201Z,2.16
2016-11-13T13:24:06.806Z,2.14
2016-11-13T13:25:15.401Z,2.02
2016-11-13T13:26:24.022Z,2.1
2016-11-13T13:27:32.647Z,2.09
2016-11-13T13:28:41.273Z,2.06
2016-11-13T13:29:49.894Z,2.1
2016-11-13T13:30:58.534Z,2.16
2016-11-13T13:32:07.153Z,2.14
2016-11-13T13:33:16.067Z,2.02
2016-11-13T13:34:24.692Z,2.05
2016-11-13T13:35:33.292Z,2.09
2016-11-13T13:36:41.930Z,2.09
2016-11-13T13:37:50.531Z,2.1
2016-11-13T13:38:59.159Z,2.17
2016-11-13T13:40:08.083Z,2.1
2016-11-13T13:41:16.702Z,2.14
2016-11-13T13:42:25.324Z,2.06
2016-11-13T13:43:33.945Z,2.1
2016-11-13T13:44:42.583Z,2.06
2016-11-13T13:45:51.200Z,2.06
2016-11-13T13:46:59.795Z,1.99
2016-11-13T13:48:08.392Z,1.99
2016-11-13T13:49:17.017Z,1.9
2016-11-13T13:50:25.639Z,1.99
2016-11-13T13:51:34.231Z,1.87
2016-11-13T13:52:42.834Z,1.93
2016-11-13T13:53:51.423Z,1.86
2016-11-13T13:55:00.027Z,1.86
2016-11-13T13:56:08.627Z,1.8
2016-11-13T13:57:17.244Z,1.72
2016-11-13T13:58:25.862Z,1.76
2016-11-13T13:59:34.486Z,1.73
2016-11-13T14:00:43.112Z,1.76
2016-11-13T14:01:51.753Z,1.7
2016-11-13T14:03:00.355Z,1.73
2016-11-13T14:04:08.988Z,1.72
2016-11-13T14:05:17.586Z,1.7
2016-11-13T14:06:26.206Z,1.7
2016-11-13T14:07:34.838Z,1.68
2016-11-13T14:08:43.456Z,1.69
2016-11-13T14:09:52.057Z,1.68
2016-11-13T14:11:00.664Z,1.69
2016-11-13T14:12:09.286Z,1.66
2016-11-13T14:13:17.918Z,1.62
2016-11-13T14:14:26.546Z,1.59
2016-11-13T14:15:35.154Z,1.6
2016-11-13T14:16:43.775Z,1.5
2016-11-13T14:17:52.372Z,1.45
2016-11-13T14:19:00.988Z,1.5
2016-11-13T14:20:09.583Z,1.45
2016-11-13T14:21:18.180Z,1.42
2016-11-13T14:22:26.780Z,1.52
2016-11-13T14:23:35.398Z,1.37
2016-11-13T14:24:44.019Z,1.45
2016-11-13T14:25:52.622Z,1.48
2016-11-13T14:27:01.248Z,1.3
2016-11-13T14:28:09.868Z,1.22
2016-11-13T14:29:18.490Z,1.23
2016-11-13T14:30:27.106Z,1.09
2016-11-13T14:31:35.703Z,1.05
2016-11-13T14:32:44.304Z,1
2016-11-13T14:33:52.942Z,0.9
2016-11-13T14:35:01.592Z,0.88
2016-11-13T14:36:10.217Z,0.79
2016-11-13T14:37:18.856Z,0.79
2016-11-13T14:38:27.476Z,0.7
2016-11-13T14:39:36.073Z,0.57
2016-11-13T14:40:44.676Z,0.62
2016-11-13T14:41:53.297Z,0.61
2016-11-13T14:43:01.907Z,0.55
2016-11-13T14:44:10.511Z,0.42
2016-11-13T14:45:19.124Z,0.42
2016-11-13T14:46:27.757Z,0.49
2016-11-13T14:47:36.346Z,0.38
2016-11-13T14:48:44.970Z,0.44
2016-11-13T14:49:53.893Z,0.33
2016-11-13T14:51:02.485Z,0.32
2016-11-13T14:52:11.109Z,0.2
2016-11-13T14:53:19.762Z,0.17
2016-11-13T14:54:28.375Z,0.17
2016-11-13T14:55:37.002Z,0.11